Time;durP1;ratioP1;P1;durP2;ratioP2;P2;SDS_P1;SDS_P2;PMS_P1;PMS_P2;Temp;Humidity;BMP_temperature;BMP_pressure;BME280_temperature;BME280_humidity;BME280_pressure;Samples;Min_cycle;Max_cycle;Signal;HPM_P1;HPM_P2
2023/01/11 00:00:36;;;;;;;17.80;7.15;;;;;;;;;;5053055;28;20470;-68
2023/01/11 00:03:06;;;;;;;29.63;17.40;;;;;;;;;;5049150;28;20097;-67
2023/01/11 00:05:36;;;;;;;17.42;7.40;;;;;;;;;;5061046;28;20385;-66
2023/01/11 00:08:03;;;;;;;12.02;6.00;;;;;;;;;;5044840;28;20543;-67
2023/01/11 00:10:33;;;;;;;14.90;6.55;;;;;;;;;;5041601;28;20680;-67
2023/01/11 00:13:00;;;;;;;14.18;6.15;;;;;;;;;;5046936;28;20063;-67
2023/01/11 00:15:26;;;;;;;15.10;7.07;;;;;;;;;;5050089;28;20457;-67
2023/01/11 00:17:53;;;;;;;14.60;7.10;;;;;;;;;;5047189;28;20035;-68
2023/01/11 00:20:19;;;;;;;15.88;7.57;;;;;;;;;;5054223;28;20032;-67
2023/01/11 00:22:45;;;;;;;16.75;7.47;;;;;;;;;;5055410;28;20415;-67
2023/01/11 00:25:12;;;;;;;15.73;7.18;;;;;;;;;;5050284;28;20155;-67
2023/01/11 00:27:38;;;;;;;15.10;7.55;;;;;;;;;;5055149;28;20794;-67
2023/01/11 00:30:07;;;;;;;15.50;7.47;;;;;;;;;;5049833;28;20036;-67
2023/01/11 00:32:33;;;;;;;15.85;7.68;;;;;;;;;;5051782;28;20750;-67
2023/01/11 00:35:00;;;;;;;15.00;7.70;;;;;;;;;;5055012;28;20287;-67
2023/01/11 00:37:26;;;;;;;;;;;;;;;;;;5042597;28;20047;-66
2023/01/11 00:39:52;;;;;;;16.17;8.75;;;;;;;;;;5046497;28;19912;-67
2023/01/11 00:47:57;;;;;;;15.35;8.10;;;;;;;;;;5051178;28;20039;-68
2023/01/11 00:50:34;;;;;;;17.23;8.80;;;;;;;;;;5048780;28;20039;-67
2023/01/11 00:53:00;;;;;;;18.85;7.20;;;;;;;;;;5055263;28;20065;-69
2023/01/11 00:55:27;;;;;;;16.58;7.50;;;;;;;;;;5041583;28;21051;-67
2023/01/11 00:57:53;;;;;;;16.45;7.53;;;;;;;;;;5048040;28;20024;-65
2023/01/11 01:00:19;;;;;;;;;;;;;;;;;;5051709;28;20024;-68
2023/01/11 01:02:46;;;;;;;16.60;7.45;;;;;;;;;;5052947;28;19912;-68
2023/01/11 01:05:12;;;;;;;;;;;;;;;;;;5049749;28;20772;-67
2023/01/11 01:07:38;;;;;;;14.55;7.53;;;;;;;;;;5054107;28;19920;-66
2023/01/11 01:10:05;;;;;;;15.85;7.53;;;;;;;;;;5046254;28;20469;-68
2023/01/11 01:15:15;;;;;;;14.52;6.68;;;;;;;;;;5042957;28;20541;-65
2023/01/11 01:17:42;;;;;;;15.32;5.70;;;;;;;;;;5051383;28;20059;-65
2023/01/11 01:20:08;;;;;;;12.90;4.72;;;;;;;;;;5044315;28;20067;-64
2023/01/11 01:22:37;;;;;;;13.68;5.35;;;;;;;;;;5056268;28;20143;-65
2023/01/11 01:25:04;;;;;;;11.55;4.10;;;;;;;;;;5049871;28;20040;-65
2023/01/11 01:27:30;;;;;;;10.57;4.40;;;;;;;;;;5039285;28;20031;-64
2023/01/11 01:29:56;;;;;;;11.27;4.35;;;;;;;;;;5045797;28;20110;-64
2023/01/11 01:32:22;;;;;;;12.20;4.22;;;;;;;;;;5050595;28;20039;-64
2023/01/11 01:34:48;;;;;;;10.25;3.92;;;;;;;;;;5056423;28;20374;-65
2023/01/11 01:37:14;;;;;;;11.00;4.07;;;;;;;;;;5049153;28;20579;-64
2023/01/11 01:39:41;;;;;;;11.52;4.15;;;;;;;;;;5051433;28;21461;-64
2023/01/11 01:42:07;;;;;;;;;;;;;;;;;;5049384;28;20024;-64
2023/01/11 01:44:52;;;;;;;11.70;4.20;;;;;;;;;;5057449;28;19985;-65
2023/01/11 01:47:19;;;;;;;12.77;3.92;;;;;;;;;;5051710;28;20039;-64
2023/01/11 01:49:45;;;;;;;9.23;3.63;;;;;;;;;;5056291;28;20409;-64
2023/01/11 01:52:12;;;;;;;11.48;3.95;;;;;;;;;;5051233;28;20120;-65
2023/01/11 01:54:40;;;;;;;12.95;3.60;;;;;;;;;;5048827;28;20511;-64
2023/01/11 01:57:10;;;;;;;10.98;4.20;;;;;;;;;;5047241;28;20113;-64
2023/01/11 01:59:36;;;;;;;11.82;3.95;;;;;;;;;;5053697;28;20033;-63
2023/01/11 02:02:02;;;;;;;10.10;3.50;;;;;;;;;;5037073;28;20696;-65
2023/01/11 02:04:29;;;;;;;11.07;3.83;;;;;;;;;;5045245;28;20195;-63
2023/01/11 02:07:06;;;;;;;9.88;3.45;;;;;;;;;;5038631;28;20059;-63
2023/01/11 02:09:38;;;;;;;9.90;3.75;;;;;;;;;;5047240;28;20118;-64
2023/01/11 02:12:05;;;;;;;11.38;3.88;;;;;;;;;;5038359;28;20050;-62
2023/01/11 02:14:31;;;;;;;13.45;4.28;;;;;;;;;;5051592;28;20144;-65
2023/01/11 02:16:57;;;;;;;13.00;4.22;;;;;;;;;;5050279;28;20020;-65
2023/01/11 02:19:24;;;;;;;11.52;4.22;;;;;;;;;;5060260;28;20036;-65
2023/01/11 02:22:02;;;;;;;10.50;3.92;;;;;;;;;;5058725;28;20107;-64
2023/01/11 02:24:31;;;;;;;10.18;4.30;;;;;;;;;;5050663;28;20483;-65
2023/01/11 02:27:16;;;;;;;12.18;4.30;;;;;;;;;;5054822;28;20374;-65
2023/01/11 02:29:55;;;;;;;13.25;5.13;;;;;;;;;;5063992;28;20037;-65
2023/01/11 02:32:24;;;;;;;10.93;4.22;;;;;;;;;;5057948;28;20343;-65
2023/01/11 02:35:08;;;;;;;11.88;4.15;;;;;;;;;;5057506;28;20040;-65
2023/01/11 02:37:41;;;;;;;10.15;3.95;;;;;;;;;;5053902;28;20718;-63
2023/01/11 02:40:15;;;;;;;10.98;3.88;;;;;;;;;;5049794;28;20028;-64
2023/01/11 02:45:43;;;;;;;12.23;3.78;;;;;;;;;;5057154;28;20090;-63
2023/01/11 02:48:12;;;;;;;11.05;3.53;;;;;;;;;;5050401;28;20192;-63
2023/01/11 02:51:02;;;;;;;8.85;3.38;;;;;;;;;;5042423;28;20040;-65
2023/01/11 02:53:41;;;;;;;10.50;3.42;;;;;;;;;;5045361;28;21046;-63
2023/01/11 02:56:10;;;;;;;10.73;3.92;;;;;;;;;;5038462;28;20059;-63
2023/01/11 02:58:37;;;;;;;9.20;3.67;;;;;;;;;;5047407;28;20071;-63
2023/01/11 03:01:04;;;;;;;9.52;3.50;;;;;;;;;;5050746;28;20031;-64
2023/01/11 03:03:31;;;;;;;;;;;;;;;;;;5050611;28;20447;-64
2023/01/11 03:06:03;;;;;;;8.87;3.00;;;;;;;;;;5039571;28;20756;-65
2023/01/11 03:08:29;;;;;;;8.98;3.33;;;;;;;;;;5054565;28;20257;-63
2023/01/11 03:11:04;;;;;;;10.18;3.45;;;;;;;;;;5053990;28;20401;-64
2023/01/11 03:13:40;;;;;;;9.00;3.17;;;;;;;;;;5052949;28;20062;-63
2023/01/11 03:16:42;;;;;;;8.30;2.95;;;;;;;;;;5051865;28;20029;-64
2023/01/11 03:19:22;;;;;;;8.13;2.47;;;;;;;;;;5034004;28;20016;-65
2023/01/11 03:22:01;;;;;;;8.07;2.55;;;;;;;;;;5026716;28;20207;-63
2023/01/11 03:24:48;;;;;;;9.27;2.85;;;;;;;;;;5051895;28;20452;-65
2023/01/11 03:27:19;;;;;;;8.10;2.60;;;;;;;;;;5038624;28;20140;-65
2023/01/11 03:30:01;;;;;;;7.72;2.25;;;;;;;;;;5041986;28;20168;-65
2023/01/11 03:32:27;;;;;;;7.63;2.10;;;;;;;;;;5054879;28;20488;-65
2023/01/11 03:35:12;;;;;;;6.70;1.90;;;;;;;;;;5039415;28;20490;-65
2023/01/11 03:37:48;;;;;;;7.72;2.00;;;;;;;;;;5055397;28;20028;-65
2023/01/11 03:40:20;;;;;;;9.10;2.20;;;;;;;;;;5054351;28;20396;-65
2023/01/11 03:45:33;;;;;;;7.15;1.92;;;;;;;;;;5060600;28;20089;-65
2023/01/11 03:48:01;;;;;;;8.13;2.30;;;;;;;;;;5049008;28;20036;-65
2023/01/11 03:50:27;;;;;;;8.43;2.47;;;;;;;;;;5056822;28;20405;-65
2023/01/11 03:52:54;;;;;;;8.23;2.35;;;;;;;;;;5053008;28;20051;-65
2023/01/11 03:55:25;;;;;;;7.40;2.05;;;;;;;;;;5054835;28;20024;-65
2023/01/11 03:57:53;;;;;;;9.38;2.53;;;;;;;;;;5053755;28;20048;-65
2023/01/11 04:00:20;;;;;;;8.55;2.10;;;;;;;;;;5054335;28;20024;-65
2023/01/11 04:02:49;;;;;;;6.88;2.08;;;;;;;;;;5055361;28;20501;-65
2023/01/11 04:05:15;;;;;;;6.35;1.92;;;;;;;;;;5052207;28;20036;-65
2023/01/11 04:07:41;;;;;;;10.65;2.22;;;;;;;;;;5052396;28;20040;-65
2023/01/11 04:10:08;;;;;;;7.35;1.90;;;;;;;;;;5049783;28;20552;-65
2023/01/11 04:12:33;;;;;;;;;;;;;;;;;;5049857;28;20963;-63
2023/01/11 04:15:02;;;;;;;9.23;2.30;;;;;;;;;;5044770;28;19923;-65
2023/01/11 04:17:28;;;;;;;12.05;2.40;;;;;;;;;;5051831;28;20469;-65
2023/01/11 04:19:54;;;;;;;8.73;2.10;;;;;;;;;;5048832;28;20354;-65
2023/01/11 04:22:20;;;;;;;6.72;1.83;;;;;;;;;;5051253;28;20084;-64
2023/01/11 04:24:50;;;;;;;9.38;2.10;;;;;;;;;;5046841;28;20159;-65
2023/01/11 04:27:16;;;;;;;8.48;2.13;;;;;;;;;;5049055;28;20422;-64
2023/01/11 04:29:42;;;;;;;9.82;2.33;;;;;;;;;;5057892;28;20041;-64
2023/01/11 04:32:08;;;;;;;10.07;2.47;;;;;;;;;;5055118;28;20596;-64
2023/01/11 04:34:37;;;;;;;8.45;2.17;;;;;;;;;;5059368;28;20045;-65
2023/01/11 04:37:03;;;;;;;10.35;2.13;;;;;;;;;;5056671;28;20521;-63
2023/01/11 04:39:29;;;;;;;6.50;1.80;;;;;;;;;;5052341;28;20059;-64
2023/01/11 04:44:40;;;;;;;9.02;2.10;;;;;;;;;;5050355;28;20051;-65
2023/01/11 04:47:06;;;;;;;9.00;2.10;;;;;;;;;;5052384;28;20485;-63
2023/01/11 04:49:32;;;;;;;7.65;1.90;;;;;;;;;;5052265;28;20036;-65
2023/01/11 04:51:58;;;;;;;7.80;2.08;;;;;;;;;;5058133;28;20544;-63
2023/01/11 04:54:24;;;;;;;7.30;1.98;;;;;;;;;;5057139;28;20048;-65
2023/01/11 04:56:51;;;;;;;6.68;1.75;;;;;;;;;;5058411;28;20029;-65
2023/01/11 04:59:17;;;;;;;7.55;2.00;;;;;;;;;;5055088;28;20232;-65
2023/01/11 05:01:43;;;;;;;7.78;2.03;;;;;;;;;;5054845;28;20082;-64
2023/01/11 05:04:09;;;;;;;7.78;2.50;;;;;;;;;;5049516;28;20360;-64
2023/01/11 05:06:35;;;;;;;;;;;;;;;;;;5053069;28;20032;-64
2023/01/11 05:09:02;;;;;;;8.20;2.20;;;;;;;;;;5049417;28;19912;-64
2023/01/11 05:11:28;;;;;;;7.43;2.25;;;;;;;;;;5056099;28;20433;-65
2023/01/11 05:13:54;;;;;;;9.20;2.88;;;;;;;;;;5042587;28;20067;-63
2023/01/11 05:16:24;;;;;;;8.63;2.65;;;;;;;;;;5041710;28;20035;-64
2023/01/11 05:18:57;;;;;;;8.30;2.63;;;;;;;;;;5050226;28;20139;-63
2023/01/11 05:21:25;;;;;;;8.40;2.50;;;;;;;;;;5055170;28;20033;-63
2023/01/11 05:23:52;;;;;;;9.32;2.45;;;;;;;;;;5055969;28;20388;-65
2023/01/11 05:26:18;;;;;;;;;;;;;;;;;;5048369;28;20422;-65
2023/01/11 05:28:45;;;;;;;8.00;2.60;;;;;;;;;;5055094;28;20005;-65
2023/01/11 05:31:10;;;;;;;;;;;;;;;;;;5049126;28;20039;-65
2023/01/11 05:33:37;;;;;;;7.95;2.63;;;;;;;;;;5060090;28;19920;-65
2023/01/11 05:36:04;;;;;;;9.52;2.60;;;;;;;;;;5046855;28;20552;-65
2023/01/11 05:38:30;;;;;;;8.38;2.65;;;;;;;;;;5048853;28;20107;-65
2023/01/11 05:40:58;;;;;;;7.38;2.70;;;;;;;;;;5047693;28;20059;-65
2023/01/11 05:43:24;;;;;;;8.20;2.65;;;;;;;;;;5043007;28;20035;-65
2023/01/11 05:45:50;;;;;;;9.60;2.50;;;;;;;;;;5040583;28;20028;-65
2023/01/11 05:48:16;;;;;;;10.55;2.83;;;;;;;;;;5045740;28;20036;-65
2023/01/11 05:50:43;;;;;;;8.60;2.88;;;;;;;;;;5046551;28;20028;-65
2023/01/11 05:53:09;;;;;;;9.60;3.33;;;;;;;;;;5048356;28;20849;-65
2023/01/11 05:55:35;;;;;;;;;;;;;;;;;;5052835;28;20819;-65
2023/01/11 05:58:01;;;;;;;11.60;3.80;;;;;;;;;;5049252;28;19922;-65
2023/01/11 06:00:27;;;;;;;11.45;4.85;;;;;;;;;;5051359;28;20179;-66
2023/01/11 06:02:54;;;;;;;11.38;5.10;;;;;;;;;;5051564;28;20055;-64
2023/01/11 06:05:20;;;;;;;11.38;4.38;;;;;;;;;;5052048;28;20036;-64
2023/01/11 06:07:46;;;;;;;12.05;4.40;;;;;;;;;;5046795;28;20463;-64
2023/01/11 06:10:12;;;;;;;8.75;3.20;;;;;;;;;;5039570;28;20079;-64
2023/01/11 06:12:38;;;;;;;8.70;3.03;;;;;;;;;;5052605;28;20417;-66
2023/01/11 06:15:04;;;;;;;10.57;3.10;;;;;;;;;;5049953;28;20477;-64
2023/01/11 06:17:31;;;;;;;8.25;2.58;;;;;;;;;;5052775;28;20025;-65
2023/01/11 06:19:57;;;;;;;9.70;3.03;;;;;;;;;;5048223;28;20524;-65
2023/01/11 06:22:23;;;;;;;8.25;3.15;;;;;;;;;;5051097;28;21760;-64
2023/01/11 06:25:31;;;;;;;9.65;3.25;;;;;;;;;;5047862;28;20123;-65
2023/01/11 06:27:42;;;;;;;8.57;3.00;;;;;;;;;;5053390;28;20137;-64
2023/01/11 06:30:08;;;;;;;9.48;3.00;;;;;;;;;;5050603;28;20138;-63
2023/01/11 06:32:34;;;;;;;;;;;;;;;;;;5052485;28;20032;-65
2023/01/11 06:35:00;;;;;;;11.73;3.00;;;;;;;;;;5046070;28;19930;-67
2023/01/11 06:37:26;;;;;;;8.32;3.03;;;;;;;;;;5053173;28;20438;-64
2023/01/11 06:39:53;;;;;;;12.68;2.40;;;;;;;;;;5051023;28;20036;-65
2023/01/11 06:42:19;;;;;;;8.50;2.72;;;;;;;;;;5050564;28;20055;-65
2023/01/11 06:44:45;;;;;;;7.85;2.75;;;;;;;;;;5047691;28;20029;-66
2023/01/11 06:47:11;;;;;;;12.27;3.40;;;;;;;;;;5049971;28;20148;-65
2023/01/11 06:49:38;;;;;;;10.35;3.30;;;;;;;;;;5049084;28;20449;-65
2023/01/11 06:52:04;;;;;;;10.15;3.20;;;;;;;;;;5047687;28;20110;-64
2023/01/11 06:54:30;;;;;;;9.30;3.70;;;;;;;;;;5049441;28;20525;-66
2023/01/11 06:56:56;;;;;;;9.55;3.65;;;;;;;;;;5048903;28;20028;-63
2023/01/11 06:59:22;;;;;;;9.77;3.95;;;;;;;;;;5052125;28;20448;-64
2023/01/11 07:01:49;;;;;;;12.05;4.30;;;;;;;;;;5051451;28;20028;-66
2023/01/11 07:04:17;;;;;;;13.48;4.00;;;;;;;;;;5048995;28;20139;-64
2023/01/11 07:06:43;;;;;;;11.25;3.72;;;;;;;;;;5056370;28;20039;-65
2023/01/11 07:09:10;;;;;;;10.93;3.45;;;;;;;;;;5053424;28;20554;-65
2023/01/11 07:11:38;;;;;;;11.30;3.97;;;;;;;;;;5055823;28;20232;-64
2023/01/11 07:14:05;;;;;;;12.00;5.25;;;;;;;;;;5053002;28;20055;-65
2023/01/11 07:16:31;;;;;;;14.35;5.90;;;;;;;;;;5053634;28;20031;-66
2023/01/11 07:18:57;;;;;;;18.80;5.90;;;;;;;;;;5052099;28;20027;-66
2023/01/11 07:21:23;;;;;;;18.48;5.60;;;;;;;;;;5055013;28;20028;-64
2023/01/11 07:23:51;;;;;;;16.52;6.22;;;;;;;;;;5055591;28;20198;-64
2023/01/11 07:26:17;;;;;;;17.63;5.85;;;;;;;;;;5046090;28;20156;-64
2023/01/11 07:28:43;;;;;;;11.68;5.75;;;;;;;;;;5052506;28;20032;-65
2023/01/11 07:31:10;;;;;;;16.10;5.85;;;;;;;;;;5046522;28;20036;-65
2023/01/11 07:33:36;;;;;;;16.15;6.45;;;;;;;;;;5054769;28;20458;-65
2023/01/11 07:36:04;;;;;;;15.43;5.72;;;;;;;;;;5053710;28;20032;-64
2023/01/11 07:38:30;;;;;;;16.70;6.18;;;;;;;;;;5054298;28;20127;-64
2023/01/11 07:40:56;;;;;;;17.77;7.93;;;;;;;;;;5049033;28;20606;-64
2023/01/11 07:43:22;;;;;;;19.02;8.50;;;;;;;;;;5055381;28;20103;-63
2023/01/11 07:45:50;;;;;;;18.35;7.88;;;;;;;;;;5050120;28;20351;-65
2023/01/11 07:48:25;;;;;;;22.80;10.57;;;;;;;;;;5046737;28;20028;-65
2023/01/11 07:50:51;;;;;;;19.58;9.48;;;;;;;;;;5053405;28;20382;-65
2023/01/11 07:53:18;;;;;;;20.17;11.43;;;;;;;;;;5049139;28;20115;-65
2023/01/11 07:55:44;;;;;;;;;;;;;;;;;;5051156;28;20446;-65
2023/01/11 07:58:13;;;;;;;18.25;9.93;;;;;;;;;;5049740;28;20247;-65
2023/01/11 08:00:40;;;;;;;19.95;9.45;;;;;;;;;;5049130;28;20024;-64
2023/01/11 08:03:06;;;;;;;15.68;8.65;;;;;;;;;;5045857;28;20066;-66
2023/01/11 08:05:32;;;;;;;17.50;8.30;;;;;;;;;;5051790;28;20025;-63
2023/01/11 08:07:58;;;;;;;15.13;8.82;;;;;;;;;;5047313;28;20480;-65
2023/01/11 08:10:25;;;;;;;14.10;7.32;;;;;;;;;;5050857;28;20614;-64
2023/01/11 08:15:35;;;;;;;15.18;7.22;;;;;;;;;;5051981;28;20271;-65
2023/01/11 08:18:03;;;;;;;15.48;6.90;;;;;;;;;;5047875;28;20107;-66
2023/01/11 08:20:29;;;;;;;14.65;5.80;;;;;;;;;;5052207;28;20412;-66
2023/01/11 08:22:55;;;;;;;14.32;5.43;;;;;;;;;;5051678;28;20028;-65
2023/01/11 08:25:22;;;;;;;15.00;5.88;;;;;;;;;;5053461;28;20024;-66
2023/01/11 08:27:48;;;;;;;;;;;;;;;;;;5048482;28;20037;-64
2023/01/11 08:30:14;;;;;;;14.02;5.50;;;;;;;;;;5048694;28;20597;-65
2023/01/11 08:32:40;;;;;;;;;;;;;;;;;;5049508;28;20039;-64
2023/01/11 08:35:06;;;;;;;10.32;4.57;;;;;;;;;;5048557;28;20247;-64
2023/01/11 08:37:32;;;;;;;12.00;5.25;;;;;;;;;;5050021;28;20543;-66
2023/01/11 08:39:58;;;;;;;15.38;5.70;;;;;;;;;;5050309;28;20086;-66
2023/01/11 08:42:25;;;;;;;13.38;4.93;;;;;;;;;;5055539;28;20035;-65
2023/01/11 08:44:51;;;;;;;13.50;4.60;;;;;;;;;;5054440;28;20429;-65
2023/01/11 08:47:17;;;;;;;10.05;3.90;;;;;;;;;;5050492;28;20058;-66
2023/01/11 08:49:43;;;;;;;14.30;4.20;;;;;;;;;;5050656;28;20367;-66
2023/01/11 08:52:13;;;;;;;11.20;4.32;;;;;;;;;;5047455;28;20036;-65
2023/01/11 08:54:39;;;;;;;10.07;3.72;;;;;;;;;;5050068;28;20143;-64
2023/01/11 08:57:06;;;;;;;10.93;4.20;;;;;;;;;;5047506;28;20024;-66
2023/01/11 08:59:32;;;;;;;11.50;4.45;;;;;;;;;;5050128;28;20144;-66
2023/01/11 09:01:58;;;;;;;;;;;;;;;;;;5050597;28;20093;-65
2023/01/11 09:04:25;;;;;;;12.57;4.80;;;;;;;;;;5051616;28;19924;-65
2023/01/11 09:06:52;;;;;;;13.43;5.82;;;;;;;;;;5050748;28;20062;-64
2023/01/11 09:09:18;;;;;;;14.68;6.20;;;;;;;;;;5053530;28;20252;-66
2023/01/11 09:11:53;;;;;;;;;;;;;;;;;;5054241;28;20568;-66
2023/01/11 09:14:20;;;;;;;14.65;6.75;;;;;;;;;;5052102;28;20479;-66
2023/01/11 09:16:47;;;;;;;15.50;6.50;;;;;;;;;;5052430;28;20021;-66
2023/01/11 09:19:13;;;;;;;15.70;7.20;;;;;;;;;;5049711;28;20958;-66
2023/01/11 09:21:40;;;;;;;17.05;7.50;;;;;;;;;;5053549;28;20024;-66
2023/01/11 09:24:06;;;;;;;;;;;;;;;;;;5049379;28;20119;-66
2023/01/11 09:26:32;;;;;;;18.33;7.97;;;;;;;;;;5052112;28;19919;-64
2023/01/11 09:28:58;;;;;;;17.80;8.32;;;;;;;;;;5052138;28;20029;-64
2023/01/11 09:31:24;;;;;;;17.50;9.27;;;;;;;;;;5054733;28;20040;-65
2023/01/11 09:33:50;;;;;;;17.75;9.13;;;;;;;;;;5049156;28;20040;-65
2023/01/11 09:36:20;;;;;;;;;;;;;;;;;;5047863;28;20269;-65
2023/01/11 09:38:47;;;;;;;14.25;8.02;;;;;;;;;;5054264;28;19908;-65
2023/01/11 09:41:16;;;;;;;16.20;8.48;;;;;;;;;;5047552;28;20107;-65
2023/01/11 09:43:49;;;;;;;16.00;8.85;;;;;;;;;;5051643;28;20115;-66
2023/01/11 09:46:16;;;;;;;16.10;7.93;;;;;;;;;;5049739;28;20034;-65
2023/01/11 09:48:46;;;;;;;18.73;7.93;;;;;;;;;;5055021;28;20490;-66
2023/01/11 09:51:18;;;;;;;14.70;8.15;;;;;;;;;;5049926;28;20033;-65
2023/01/11 09:53:48;;;;;;;16.55;8.68;;;;;;;;;;5055148;28;20814;-66
2023/01/11 09:56:18;;;;;;;14.73;7.45;;;;;;;;;;5050566;28;20512;-65
2023/01/11 09:58:56;;;;;;;16.15;8.25;;;;;;;;;;5051989;28;20028;-65
2023/01/11 10:01:24;;;;;;;14.75;7.53;;;;;;;;;;5053450;28;20028;-65
2023/01/11 10:04:10;;;;;;;13.90;7.70;;;;;;;;;;5050691;28;20442;-64
2023/01/11 10:06:50;;;;;;;14.05;7.05;;;;;;;;;;5052422;28;20066;-65
2023/01/11 10:09:29;;;;;;;12.68;4.63;;;;;;;;;;5052776;28;20429;-66
2023/01/11 10:12:03;;;;;;;15.40;4.63;;;;;;;;;;5046455;28;20439;-65
2023/01/11 10:14:47;;;;;;;10.68;3.38;;;;;;;;;;5048743;28;20036;-65
2023/01/11 10:17:29;;;;;;;9.65;3.70;;;;;;;;;;5052161;28;20765;-65
2023/01/11 10:20:00;;;;;;;10.90;3.67;;;;;;;;;;5047881;28;20831;-65
2023/01/11 10:22:33;;;;;;;10.48;4.00;;;;;;;;;;5052434;28;20505;-64
2023/01/11 10:25:06;;;;;;;14.55;4.10;;;;;;;;;;5043809;28;20036;-67
2023/01/11 10:27:38;;;;;;;10.38;3.90;;;;;;;;;;5050508;28;20402;-65
2023/01/11 10:41:37;;;;;;;8.82;2.95;;;;;;;;;;5054601;28;20185;-66
2023/01/11 10:44:16;;;;;;;9.23;2.88;;;;;;;;;;5046116;28;20020;-65
2023/01/11 10:46:44;;;;;;;9.55;2.80;;;;;;;;;;5062079;28;21155;-65
2023/01/11 10:49:30;;;;;;;9.35;2.88;;;;;;;;;;5051937;28;20101;-65
2023/01/11 10:51:59;;;;;;;9.32;3.00;;;;;;;;;;5051844;28;20569;-65
2023/01/11 10:54:30;;;;;;;10.57;3.70;;;;;;;;;;5052489;28;20170;-65
2023/01/11 10:57:12;;;;;;;9.55;3.30;;;;;;;;;;5056139;28;20028;-65
2023/01/11 10:59:55;;;;;;;12.05;3.45;;;;;;;;;;5054576;28;20099;-65
2023/01/11 11:02:30;;;;;;;9.32;3.40;;;;;;;;;;5052700;28;20288;-66
2023/01/11 11:04:56;;;;;;;10.55;3.80;;;;;;;;;;5051029;28;20366;-65
2023/01/11 11:07:25;;;;;;;9.98;3.45;;;;;;;;;;5059218;28;20036;-65
2023/01/11 11:10:12;;;;;;;9.95;3.65;;;;;;;;;;5057929;28;20038;-66
2023/01/11 11:12:41;;;;;;;11.30;3.35;;;;;;;;;;5053305;28;20158;-65
2023/01/11 11:15:07;;;;;;;12.40;4.22;;;;;;;;;;5052673;28;20035;-66
2023/01/11 11:17:33;;;;;;;12.50;3.83;;;;;;;;;;5058986;28;20484;-66
2023/01/11 11:20:00;;;;;;;11.55;4.13;;;;;;;;;;5050458;28;20032;-66
2023/01/11 11:22:26;;;;;;;9.93;3.42;;;;;;;;;;5056072;28;20454;-67
2023/01/11 11:24:59;;;;;;;11.00;3.42;;;;;;;;;;5052314;28;20340;-66
2023/01/11 11:27:42;;;;;;;10.05;3.60;;;;;;;;;;5052863;28;20345;-67
2023/01/11 11:30:12;;;;;;;10.98;3.67;;;;;;;;;;5053765;28;20477;-65
2023/01/11 11:32:40;;;;;;;10.65;3.65;;;;;;;;;;5055367;28;20521;-65
2023/01/11 11:35:07;;;;;;;9.60;3.38;;;;;;;;;;5051962;28;20040;-65
2023/01/11 11:37:34;;;;;;;9.27;3.38;;;;;;;;;;5044722;28;20028;-65
2023/01/11 11:40:01;;;;;;;12.13;3.40;;;;;;;;;;5051732;28;20533;-65
2023/01/11 11:42:27;;;;;;;12.43;3.55;;;;;;;;;;5054390;28;20039;-66
2023/01/11 11:45:09;;;;;;;11.70;3.90;;;;;;;;;;5048019;28;20036;-67
2023/01/11 11:47:35;;;;;;;9.35;3.55;;;;;;;;;;5052782;28;20039;-66
2023/01/11 11:50:19;;;;;;;10.98;3.78;;;;;;;;;;5048898;28;20036;-66
2023/01/11 11:53:01;;;;;;;10.43;3.13;;;;;;;;;;5051072;28;20283;-65
2023/01/11 11:55:29;;;;;;;10.52;3.03;;;;;;;;;;5053882;28;20067;-67
2023/01/11 11:57:56;;;;;;;12.05;3.58;;;;;;;;;;5051637;28;20284;-65
2023/01/11 12:00:22;;;;;;;10.48;3.30;;;;;;;;;;5057639;28;20427;-65
2023/01/11 12:02:49;;;;;;;10.98;3.17;;;;;;;;;;5055144;28;20223;-65
2023/01/11 12:05:16;;;;;;;10.00;2.72;;;;;;;;;;5050651;28;20602;-66
2023/01/11 12:07:47;;;;;;;8.20;2.47;;;;;;;;;;5053457;28;20784;-66
2023/01/11 12:10:15;;;;;;;8.43;2.63;;;;;;;;;;5049582;28;20025;-65
2023/01/11 12:12:52;;;;;;;9.90;2.90;;;;;;;;;;5052997;28;20065;-67
2023/01/11 12:15:21;;;;;;;9.50;2.90;;;;;;;;;;5049207;28;20470;-67
2023/01/11 12:17:47;;;;;;;9.63;2.97;;;;;;;;;;5054674;28;20392;-67
2023/01/11 12:20:22;;;;;;;10.90;3.38;;;;;;;;;;5047807;28;21354;-67
2023/01/11 12:23:07;;;;;;;8.45;2.80;;;;;;;;;;5053978;28;20062;-65
2023/01/11 12:25:37;;;;;;;14.25;3.38;;;;;;;;;;5052876;28;20033;-65
2023/01/11 12:28:05;;;;;;;11.32;4.03;;;;;;;;;;5051202;28;20094;-66
2023/01/11 12:30:32;;;;;;;10.63;4.15;;;;;;;;;;5055830;28;20145;-68
2023/01/11 12:33:04;;;;;;;11.35;3.58;;;;;;;;;;5054141;28;20022;-67
2023/01/11 12:35:46;;;;;;;10.20;3.17;;;;;;;;;;5051888;28;20115;-67
2023/01/11 12:38:24;;;;;;;12.32;3.83;;;;;;;;;;5051057;28;20025;-67
2023/01/11 12:40:54;;;;;;;10.30;2.92;;;;;;;;;;5050561;28;20032;-67
2023/01/11 12:43:23;;;;;;;7.40;2.17;;;;;;;;;;5053512;28;20309;-67
2023/01/11 12:45:55;;;;;;;7.95;1.85;;;;;;;;;;5053730;28;20040;-67
2023/01/11 12:48:40;;;;;;;8.77;3.47;;;;;;;;;;5052203;28;20114;-67
2023/01/11 12:51:09;;;;;;;9.68;3.53;;;;;;;;;;5049137;28;20384;-67
2023/01/11 12:53:45;;;;;;;7.07;1.83;;;;;;;;;;5053482;28;20508;-67
2023/01/11 12:56:34;;;;;;;5.25;1.75;;;;;;;;;;5051061;28;20060;-67
2023/01/11 12:59:03;;;;;;;7.68;2.13;;;;;;;;;;5048885;28;20474;-67
2023/01/11 13:01:36;;;;;;;10.88;3.05;;;;;;;;;;5052080;28;20056;-69
2023/01/11 13:04:20;;;;;;;6.38;1.83;;;;;;;;;;5048384;28;20830;-66
2023/01/11 13:06:56;;;;;;;7.18;2.05;;;;;;;;;;5047033;28;20059;-66
2023/01/11 13:09:25;;;;;;;5.38;1.70;;;;;;;;;;5048668;28;20057;-66
2023/01/11 13:11:58;;;;;;;4.88;1.40;;;;;;;;;;5047147;28;20127;-65
2023/01/11 13:14:27;;;;;;;5.43;1.95;;;;;;;;;;5052221;28;20029;-65
2023/01/11 13:16:54;;;;;;;5.68;1.70;;;;;;;;;;5048693;28;20464;-67
2023/01/11 13:19:25;;;;;;;5.93;1.73;;;;;;;;;;5050854;28;20031;-66
2023/01/11 13:21:53;;;;;;;5.88;1.60;;;;;;;;;;5048717;28;20544;-65
2023/01/11 13:24:29;;;;;;;6.40;1.40;;;;;;;;;;5049879;28;20036;-67
2023/01/11 13:27:00;;;;;;;5.55;1.52;;;;;;;;;;5049196;28;20059;-67
2023/01/11 13:29:34;;;;;;;3.90;0.90;;;;;;;;;;5054093;28;20052;-67
2023/01/11 13:32:04;;;;;;;4.20;1.10;;;;;;;;;;5045020;28;20032;-67
2023/01/11 13:34:38;;;;;;;5.72;1.40;;;;;;;;;;5051127;28;20032;-65
2023/01/11 13:37:15;;;;;;;4.60;1.05;;;;;;;;;;5046330;28;20032;-67
2023/01/11 13:39:47;;;;;;;5.45;1.08;;;;;;;;;;5050877;28;20024;-67
2023/01/11 13:42:24;;;;;;;6.22;1.30;;;;;;;;;;5052013;28;20649;-67
2023/01/11 13:45:01;;;;;;;7.93;1.70;;;;;;;;;;5049717;28;20028;-68
2023/01/11 13:47:33;;;;;;;6.88;1.75;;;;;;;;;;5049885;28;20046;-66
2023/01/11 13:50:04;;;;;;;6.93;1.77;;;;;;;;;;5049452;28;20407;-69
2023/01/11 13:52:36;;;;;;;7.03;1.77;;;;;;;;;;5056929;28;20036;-65
2023/01/11 13:55:07;;;;;;;7.63;2.50;;;;;;;;;;5048700;28;20478;-66
2023/01/11 13:57:38;;;;;;;11.63;3.25;;;;;;;;;;5054131;28;20483;-67
2023/01/11 14:00:10;;;;;;;9.73;2.85;;;;;;;;;;5049958;28;20427;-66
2023/01/11 14:02:42;;;;;;;9.45;3.10;;;;;;;;;;5054317;28;20378;-67
2023/01/11 14:05:08;;;;;;;8.43;2.40;;;;;;;;;;5051147;28;20371;-67
2023/01/11 14:07:34;;;;;;;9.40;2.78;;;;;;;;;;5051752;28;20115;-66
2023/01/11 14:10:19;;;;;;;10.07;2.95;;;;;;;;;;5055108;28;20024;-67
2023/01/11 14:13:04;;;;;;;8.67;2.60;;;;;;;;;;5056993;28;20028;-67
2023/01/11 14:15:56;;;;;;;8.00;2.60;;;;;;;;;;5054047;28;20063;-66
2023/01/11 14:18:27;;;;;;;9.98;2.58;;;;;;;;;;5053507;28;20020;-67
2023/01/11 14:21:03;;;;;;;9.65;2.78;;;;;;;;;;5052825;28;20733;-67
2023/01/11 14:23:36;;;;;;;9.32;3.00;;;;;;;;;;5050210;28;20139;-66
2023/01/11 14:26:21;;;;;;;8.73;3.08;;;;;;;;;;5049390;28;20029;-66
2023/01/11 14:28:50;;;;;;;7.22;2.47;;;;;;;;;;5052914;28;20078;-67
2023/01/11 14:31:35;;;;;;;9.65;3.33;;;;;;;;;;5051396;28;20093;-68
2023/01/11 14:34:07;;;;;;;7.07;2.33;;;;;;;;;;5051324;28;20036;-66
2023/01/11 14:36:52;;;;;;;10.95;2.70;;;;;;;;;;5056201;28;20028;-67
2023/01/11 14:39:36;;;;;;;9.85;3.10;;;;;;;;;;5056956;28;20035;-68
2023/01/11 14:42:21;;;;;;;7.93;2.75;;;;;;;;;;5051319;28;20027;-67
2023/01/11 14:44:47;;;;;;;8.90;2.58;;;;;;;;;;5057236;28;20024;-67
2023/01/11 14:47:22;;;;;;;11.68;4.63;;;;;;;;;;5051345;28;20390;-67
2023/01/11 14:49:48;;;;;;;8.27;2.38;;;;;;;;;;5061740;28;20546;-66
2023/01/11 14:52:21;;;;;;;10.57;2.58;;;;;;;;;;5060796;28;21373;-68
2023/01/11 14:54:49;;;;;;;8.15;2.67;;;;;;;;;;5056646;28;20024;-66
2023/01/11 14:57:33;;;;;;;10.63;4.95;;;;;;;;;;5065540;28;20585;-68
2023/01/11 15:00:00;;;;;;;9.25;3.50;;;;;;;;;;5057640;28;20121;-66
2023/01/11 15:02:28;;;;;;;7.45;2.60;;;;;;;;;;5056296;28;20361;-70
2023/01/11 15:04:54;;;;;;;8.00;2.25;;;;;;;;;;5059382;28;20036;-68
2023/01/11 15:07:25;;;;;;;7.85;2.22;;;;;;;;;;5059608;28;20469;-70
2023/01/11 15:09:55;;;;;;;9.00;3.53;;;;;;;;;;5057113;28;20024;-70
2023/01/11 15:12:31;;;;;;;8.32;2.70;;;;;;;;;;5057961;28;20121;-68
2023/01/11 15:15:13;;;;;;;6.47;2.10;;;;;;;;;;5053086;28;20047;-69
2023/01/11 15:20:25;;;;;;;6.32;1.80;;;;;;;;;;5059606;28;20038;-70
2023/01/11 15:23:14;;;;;;;7.63;2.08;;;;;;;;;;5052809;28;20051;-70
2023/01/11 15:25:41;;;;;;;6.38;2.20;;;;;;;;;;5057675;28;20112;-70
2023/01/11 15:28:39;;;;;;;6.00;1.65;;;;;;;;;;5048901;28;20888;-70
2023/01/11 15:31:06;;;;;;;8.40;2.92;;;;;;;;;;5069054;27;20573;-70